Time;durP1;ratioP1;P1;durP2;ratioP2;P2;SDS_P1;SDS_P2;PMS_P1;PMS_P2;Temp;Humidity;BMP_temperature;BMP_pressure;BME280_temperature;BME280_humidity;BME280_pressure;Samples;Min_cycle;Max_cycle;Signal;HPM_P1;HPM_P2
2021/05/11 00:00:45;;;;;;;;;;;22.20;49.00;;;;;;4702866;30;19931;-85
2021/05/11 00:03:11;;;;;;;;;;;22.20;49.00;;;;;;4708650;30;19946;-86
2021/05/11 00:05:37;;;;;;;;;;;22.20;49.10;;;;;;4707204;30;19942;-87
2021/05/11 00:08:03;;;;;;;;;;;22.20;49.10;;;;;;4704850;30;21240;-85
2021/05/11 00:10:29;;;;;;;;;;;22.20;49.10;;;;;;4694589;30;19931;-85
2021/05/11 00:12:56;;;;;;;;;;;22.20;49.10;;;;;;4703878;30;20397;-84
2021/05/11 00:15:22;;;;;;;;;;;22.20;49.20;;;;;;4694533;30;19935;-83
2021/05/11 00:17:49;;;;;;;;;;;22.20;49.10;;;;;;4708706;30;19972;-83
2021/05/11 00:20:15;;;;;;;;;;;22.10;49.10;;;;;;4693606;30;19938;-83
2021/05/11 00:22:42;;;;;;;;;;;22.10;49.10;;;;;;4708107;30;19938;-83
2021/05/11 00:25:08;;;;;;;;;;;22.20;49.20;;;;;;4700323;30;19953;-82
2021/05/11 00:27:35;;;;;;;;;;;22.20;49.20;;;;;;4708312;30;19938;-84
2021/05/11 00:30:01;;;;;;;;;;;22.20;49.20;;;;;;4700385;30;19931;-87
2021/05/11 00:32:28;;;;;;;;;;;22.10;49.10;;;;;;4693678;30;19939;-86
2021/05/11 00:34:54;;;;;;;;;;;22.10;49.20;;;;;;4704956;30;19938;-86
2021/05/11 00:37:20;;;;;;;;;;;22.10;49.20;;;;;;4703260;30;19931;-86
2021/05/11 00:39:46;;;;;;;;;;;22.10;49.20;;;;;;4698733;30;19931;-86
2021/05/11 00:42:12;;;;;;;;;;;22.10;49.20;;;;;;4701565;30;19931;-85
2021/05/11 00:44:39;;;;;;;;;;;22.10;49.30;;;;;;4707662;30;19938;-85
2021/05/11 00:47:06;;;;;;;;;;;22.10;49.30;;;;;;4702046;30;19931;-84
2021/05/11 00:49:35;;;;;;;;;;;22.10;49.30;;;;;;4708518;30;20596;-84
2021/05/11 00:52:02;;;;;;;;;;;22.10;49.30;;;;;;4708451;30;19935;-83
2021/05/11 00:54:31;;;;;;;;;;;22.10;49.40;;;;;;4703868;30;20020;-84
2021/05/11 00:56:58;;;;;;;;;;;22.10;49.60;;;;;;4705456;30;19931;-83
2021/05/11 00:59:28;;;;;;;;;;;22.10;49.70;;;;;;4703602;30;19952;-83
2021/05/11 01:01:57;;;;;;;;;;;22.10;49.70;;;;;;4692917;30;19931;-83
2021/05/11 01:04:24;;;;;;;;;;;22.10;49.60;;;;;;4706193;30;20297;-84
2021/05/11 01:06:51;;;;;;;;;;;22.10;49.60;;;;;;4702091;30;19938;-84
2021/05/11 01:09:18;;;;;;;;;;;22.10;49.80;;;;;;4707545;30;19934;-85
2021/05/11 01:11:45;;;;;;;;;;;22.10;49.80;;;;;;4709245;30;19931;-84
2021/05/11 01:14:12;;;;;;;;;;;22.10;49.80;;;;;;4704548;30;19942;-83
2021/05/11 01:16:39;;;;;;;;;;;22.10;49.80;;;;;;4697796;30;19931;-83
2021/05/11 01:19:18;;;;;;;;;;;22.10;49.80;;;;;;4705871;30;20432;-83
2021/05/11 01:24:24;;;;;;;;;;;22.10;49.80;;;;;;4702101;30;19931;-83
2021/05/11 01:26:58;;;;;;;;;;;22.10;49.80;;;;;;4698497;30;19931;-84
2021/05/11 01:29:56;;;;;;;;;;;22.10;49.90;;;;;;4712815;30;19962;-83
2021/05/11 01:51:45;;;;;;;;;;;22.10;50.10;;;;;;4705594;30;20385;-81
2021/05/11 02:23:57;;;;;;;;;;;22.00;50.40;;;;;;4712018;30;19931;-84
2021/05/11 02:26:23;;;;;;;;;;;22.00;50.50;;;;;;4704885;30;19938;-83
2021/05/11 02:28:49;;;;;;;;;;;22.00;50.50;;;;;;4708868;30;20408;-84
2021/05/11 02:31:16;;;;;;;;;;;21.90;50.40;;;;;;4700357;30;19939;-84
2021/05/11 02:33:42;;;;;;;;;;;22.00;50.60;;;;;;4708447;30;19931;-84
2021/05/11 02:36:08;;;;;;;;;;;22.00;50.60;;;;;;4703832;30;19938;-84
2021/05/11 02:38:34;;;;;;;;;;;22.00;50.60;;;;;;4711133;30;19930;-84
2021/05/11 02:41:01;;;;;;;;;;;22.00;50.70;;;;;;4697248;30;19962;-84
2021/05/11 02:43:31;;;;;;;;;;;21.90;50.70;;;;;;4709902;30;19931;-84
2021/05/11 02:45:58;;;;;;;;;;;22.00;50.90;;;;;;4716831;30;20044;-84
2021/05/11 02:48:24;;;;;;;;;;;21.90;50.90;;;;;;4708165;30;19931;-85
2021/05/11 02:50:50;;;;;;;;;;;22.00;51.00;;;;;;4698092;30;19938;-85
2021/05/11 02:53:16;;;;;;;;;;;22.00;51.10;;;;;;4706671;30;19942;-84
2021/05/11 02:55:42;;;;;;;;;;;22.00;51.10;;;;;;4697775;30;20525;-83
2021/05/11 02:58:12;;;;;;;;;;;21.90;51.10;;;;;;4707803;30;20670;-83
2021/05/11 03:00:39;;;;;;;;;;;21.90;51.10;;;;;;4706457;30;19930;-83
2021/05/11 03:03:05;;;;;;;;;;;21.90;51.10;;;;;;4704196;30;20593;-83
2021/05/11 03:05:32;;;;;;;;;;;21.90;51.20;;;;;;4701495;30;19938;-82
2021/05/11 03:07:58;;;;;;;;;;;21.90;51.30;;;;;;4703571;30;19940;-82
2021/05/11 03:10:24;;;;;;;;;;;21.90;51.30;;;;;;4711665;30;19938;-83
2021/05/11 03:12:50;;;;;;;;;;;21.90;51.30;;;;;;4702528;30;19931;-82
2021/05/11 03:15:16;;;;;;;;;;;21.90;51.40;;;;;;4701127;30;20301;-82
2021/05/11 03:17:43;;;;;;;;;;;21.90;52.10;;;;;;4698983;30;20425;-81
2021/05/11 03:20:11;;;;;;;;;;;22.00;51.50;;;;;;4709264;30;20005;-82
2021/05/11 03:22:37;;;;;;;;;;;21.90;51.50;;;;;;4704340;30;19938;-81
2021/05/11 03:25:03;;;;;;;;;;;21.90;51.50;;;;;;4707306;30;20474;-82
2021/05/11 03:27:29;;;;;;;;;;;21.90;51.50;;;;;;4715164;30;19930;-83
2021/05/11 03:29:56;;;;;;;;;;;21.90;51.60;;;;;;4706792;30;19938;-83
2021/05/11 03:32:22;;;;;;;;;;;21.90;51.60;;;;;;4706320;30;19970;-81
2021/05/11 03:34:49;;;;;;;;;;;21.90;51.60;;;;;;4705711;30;19935;-81
2021/05/11 03:37:15;;;;;;;;;;;21.90;51.70;;;;;;4695493;30;19931;-82
2021/05/11 03:39:42;;;;;;;;;;;21.90;51.70;;;;;;4710091;30;19930;-82
2021/05/11 03:42:20;;;;;;;;;;;21.90;51.70;;;;;;4704770;30;20671;-83
2021/05/11 03:44:55;;;;;;;;;;;21.90;51.70;;;;;;4707813;30;19950;-83
2021/05/11 03:47:22;;;;;;;;;;;21.90;51.70;;;;;;4696989;30;19930;-83
2021/05/11 03:49:49;;;;;;;;;;;21.90;51.70;;;;;;4703238;30;19939;-83
2021/05/11 03:52:19;;;;;;;;;;;21.90;51.80;;;;;;4707838;30;19931;-82
2021/05/11 03:54:46;;;;;;;;;;;21.90;51.80;;;;;;4709798;30;19944;-84
2021/05/11 03:57:12;;;;;;;;;;;21.90;51.90;;;;;;4715282;30;20292;-83
2021/05/11 03:59:40;;;;;;;;;;;21.90;51.90;;;;;;4705968;30;20411;-82
2021/05/11 04:02:08;;;;;;;;;;;21.90;51.90;;;;;;4683487;30;19966;-82
2021/05/11 04:04:35;;;;;;;;;;;21.90;51.90;;;;;;4702416;30;19930;-89
2021/05/11 04:07:04;;;;;;;;;;;21.90;52.00;;;;;;4711440;30;19938;-81
2021/05/11 04:09:38;;;;;;;;;;;21.80;52.00;;;;;;4699311;30;19939;-81
2021/05/11 04:12:38;;;;;;;;;;;21.80;52.10;;;;;;4707644;30;21602;-82
2021/05/11 04:17:40;;;;;;;;;;;21.80;52.10;;;;;;4698708;30;20824;-82
2021/05/11 04:20:07;;;;;;;;;;;21.80;52.10;;;;;;4707734;30;22571;-85
2021/05/11 04:22:37;;;;;;;;;;;21.80;52.10;;;;;;4709589;30;20797;-84
2021/05/11 04:25:10;;;;;;;;;;;21.80;52.20;;;;;;4704176;30;19939;-84
2021/05/11 04:27:37;;;;;;;;;;;21.80;52.40;;;;;;4708019;30;19931;-84
2021/05/11 04:30:04;;;;;;;;;;;21.80;52.50;;;;;;4703086;30;20513;-85
2021/05/11 04:32:31;;;;;;;;;;;21.80;52.50;;;;;;4702647;30;19954;-84
2021/05/11 04:34:58;;;;;;;;;;;21.80;52.50;;;;;;4702956;30;19931;-85
2021/05/11 04:37:25;;;;;;;;;;;21.80;52.50;;;;;;4701039;30;19938;-84
2021/05/11 04:39:54;;;;;;;;;;;21.80;52.40;;;;;;4707795;30;19930;-84
2021/05/11 04:42:21;;;;;;;;;;;21.80;52.50;;;;;;4706042;30;19938;-83
2021/05/11 04:44:49;;;;;;;;;;;21.80;52.50;;;;;;4695212;30;19946;-83
2021/05/11 04:47:19;;;;;;;;;;;21.80;52.50;;;;;;4707059;30;19981;-83
2021/05/11 04:49:46;;;;;;;;;;;21.80;52.50;;;;;;4708789;30;19939;-85
2021/05/11 04:52:13;;;;;;;;;;;21.80;52.50;;;;;;4708834;30;19978;-86
2021/05/11 04:54:40;;;;;;;;;;;21.70;52.50;;;;;;4705506;30;19934;-85
2021/05/11 04:57:13;;;;;;;;;;;21.80;52.70;;;;;;4695375;30;19958;-85
2021/05/11 04:59:40;;;;;;;;;;;21.80;52.80;;;;;;4704814;30;20502;-85
2021/05/11 05:02:06;;;;;;;;;;;21.80;52.80;;;;;;4704958;30;19947;-85
2021/05/11 05:04:36;;;;;;;;;;;21.80;52.80;;;;;;4707879;30;19938;-85
2021/05/11 05:07:03;;;;;;;;;;;21.80;52.80;;;;;;4702463;30;19930;-84
2021/05/11 05:09:32;;;;;;;;;;;21.80;52.80;;;;;;4706561;30;19930;-85
2021/05/11 05:11:59;;;;;;;;;;;21.80;52.80;;;;;;4704360;30;20016;-85
2021/05/11 05:14:25;;;;;;;;;;;21.80;52.90;;;;;;4705053;30;19935;-86
2021/05/11 05:16:52;;;;;;;;;;;21.70;52.90;;;;;;4697632;30;19931;-85
2021/05/11 05:19:23;;;;;;;;;;;21.80;52.90;;;;;;4702537;30;19939;-86
2021/05/11 05:21:50;;;;;;;;;;;21.70;52.90;;;;;;4699845;30;19938;-89
2021/05/11 05:24:28;;;;;;;;;;;21.80;53.00;;;;;;4709212;30;19937;-87
2021/05/11 05:26:59;;;;;;;;;;;21.80;53.00;;;;;;4705409;30;20417;-86
2021/05/11 05:29:26;;;;;;;;;;;21.70;52.90;;;;;;4702449;30;19939;-87
2021/05/11 05:31:53;;;;;;;;;;;21.70;53.00;;;;;;4705334;30;19938;-85
2021/05/11 05:34:21;;;;;;;;;;;21.80;53.00;;;;;;4705556;30;19942;-86
2021/05/11 05:36:48;;;;;;;;;;;21.80;53.70;;;;;;4693064;30;19930;-83
2021/05/11 05:39:16;;;;;;;;;;;21.80;53.00;;;;;;4703980;30;20356;-85
2021/05/11 05:41:42;;;;;;;;;;;21.80;54.50;;;;;;4702215;30;19935;-87
2021/05/11 05:44:09;;;;;;;;;;;21.80;54.80;;;;;;4704800;30;19931;-81
2021/05/11 05:46:36;;;;;;;;;;;21.80;54.60;;;;;;4706419;30;20549;-84
2021/05/11 05:49:03;;;;;;;;;;;21.90;54.00;;;;;;4698728;30;19952;-83
2021/05/11 05:51:29;;;;;;;;;;;21.90;53.70;;;;;;4707974;30;19956;-85
2021/05/11 05:53:56;;;;;;;;;;;21.90;53.60;;;;;;4703313;30;19938;-83
2021/05/11 05:56:23;;;;;;;;;;;21.90;53.50;;;;;;4713284;30;20002;-82
2021/05/11 05:58:49;;;;;;;;;;;22.00;53.60;;;;;;4711528;30;19942;-83
2021/05/11 06:01:16;;;;;;;;;;;22.00;53.90;;;;;;4695679;30;19931;-81
2021/05/11 06:06:10;;;;;;;;;;;22.00;54.30;;;;;;4711276;30;19930;-80
2021/05/11 06:08:39;;;;;;;;;;;22.10;54.30;;;;;;4713038;30;19953;-80
2021/05/11 06:13:44;;;;;;;;;;;22.10;55.30;;;;;;4699817;30;19931;-90
2021/05/11 06:19:05;;;;;;;;;;;22.20;54.20;;;;;;4711937;30;20187;-87
2021/05/11 06:21:32;;;;;;;;;;;22.20;53.90;;;;;;4699253;30;19934;-91
2021/05/11 06:23:58;;;;;;;;;;;22.20;53.70;;;;;;4714130;30;19931;-87
2021/05/11 06:26:25;;;;;;;;;;;22.30;53.40;;;;;;4714484;30;19939;-91
2021/05/11 06:28:54;;;;;;;;;;;22.30;53.30;;;;;;4711006;30;19931;-81
2021/05/11 06:31:20;;;;;;;;;;;22.30;53.10;;;;;;4710221;30;19939;-84
2021/05/11 06:33:47;;;;;;;;;;;22.40;52.90;;;;;;4705372;30;19939;-83
2021/05/11 06:36:14;;;;;;;;;;;22.40;54.00;;;;;;4711554;30;19941;-87
2021/05/11 06:38:40;;;;;;;;;;;22.40;54.00;;;;;;4713473;30;19938;-88
2021/05/11 06:41:08;;;;;;;;;;;22.40;54.00;;;;;;4708559;30;19935;-90
2021/05/11 06:43:36;;;;;;;;;;;22.50;54.30;;;;;;4702987;30;19937;-91
2021/05/11 06:46:40;;;;;;;;;;;22.50;54.40;;;;;;4695523;30;19938;-91
2021/05/11 06:53:55;;;;;;;;;;;22.60;53.80;;;;;;4708628;30;20514;-86
2021/05/11 06:56:22;;;;;;;;;;;22.60;53.60;;;;;;4710792;30;19989;-94
2021/05/11 06:58:49;;;;;;;;;;;22.60;53.40;;;;;;4698943;30;19945;-86
2021/05/11 07:01:21;;;;;;;;;;;22.60;53.30;;;;;;4707638;30;19931;-90
2021/05/11 07:03:48;;;;;;;;;;;22.60;53.30;;;;;;4706779;30;19931;-93
2021/05/11 07:06:16;;;;;;;;;;;22.70;53.90;;;;;;4707948;30;19931;-90
2021/05/11 07:08:46;;;;;;;;;;;22.70;54.40;;;;;;4710842;30;20383;-96
2021/05/11 07:13:48;;;;;;;;;;;22.70;54.00;;;;;;4713214;30;19970;-90
2021/05/11 07:16:15;;;;;;;;;;;22.70;53.80;;;;;;4702418;30;20347;-89
2021/05/11 07:18:42;;;;;;;;;;;22.70;54.70;;;;;;4695792;30;20014;-89
2021/05/11 07:21:09;;;;;;;;;;;22.70;55.80;;;;;;4708879;30;19950;-83
2021/05/11 07:23:36;;;;;;;;;;;22.60;55.70;;;;;;4709589;30;19931;-92
2021/05/11 07:26:25;;;;;;;;;;;22.70;55.60;;;;;;4692735;30;19931;-95
2021/05/11 07:29:38;;;;;;;;;;;22.60;55.90;;;;;;4687662;30;20018;-93
2021/05/11 07:32:00;;;;;;;;;;;22.60;55.40;;;;;;4693085;30;20026;-94
2021/05/11 07:34:28;;;;;;;;;;;22.50;55.30;;;;;;4697776;30;19992;-93
2021/05/11 07:36:55;;;;;;;;;;;22.50;55.20;;;;;;4702779;30;20408;-94
2021/05/11 07:39:23;;;;;;;;;;;22.50;55.20;;;;;;4700625;30;20010;-94
2021/05/11 07:41:50;;;;;;;;;;;22.50;55.20;;;;;;4701487;30;19966;-95
2021/05/11 07:44:17;;;;;;;;;;;22.50;55.20;;;;;;4693234;30;20428;-93
2021/05/11 07:47:09;;;;;;;;;;;22.40;55.30;;;;;;4692930;30;20077;-92
2021/05/11 08:14:28;;;;;;;;;;;22.50;56.40;;;;;;4656373;30;19931;-94
2021/05/11 08:16:26;;;;;;;;;;;22.70;56.00;;;;;;4714716;30;19938;-86
2021/05/11 08:19:05;;;;;;;;;;;22.70;55.80;;;;;;4702965;25;19938;-89
2021/05/11 08:29:50;;;;;;;;;;;22.90;55.10;;;;;;4717563;30;20706;-95
2021/05/11 08:32:17;;;;;;;;;;;23.00;54.80;;;;;;4731346;30;19939;-94
2021/05/11 08:34:45;;;;;;;;;;;23.00;54.70;;;;;;4732206;30;19934;-89
2021/05/11 08:42:41;;;;;;;;;;;23.10;54.30;;;;;;4738614;30;19938;-88
2021/05/11 08:45:09;;;;;;;;;;;23.10;54.20;;;;;;4737815;30;19942;-94
2021/05/11 08:47:48;;;;;;;;;;;23.10;54.20;;;;;;4722857;24;19954;-94
2021/05/11 08:50:17;;;;;;;;;;;23.20;54.50;;;;;;4718523;30;19931;-92
2021/05/11 09:27:20;;;;;;;;;;;23.50;53.30;;;;;;4733440;30;20032;-88
2021/05/11 09:44:51;;;;;;;;;;;23.50;53.00;;;;;;4746615;30;20342;-90
2021/05/11 09:54:12;;;;;;;;;;;23.60;53.10;;;;;;4744982;30;19930;-93
2021/05/11 09:57:57;;;;;;;;;;;23.70;52.90;;;;;;4725859;30;20043;-93
2021/05/11 10:12:05;;;;;;;;;;;23.70;52.50;;;;;;4747447;30;19930;-85
2021/05/11 10:31:54;;;;;;;;;;;23.80;51.20;;;;;;4744586;30;19930;-93
2021/05/11 10:49:28;;;;;;;;;;;23.30;53.70;;;;;;4743931;30;21284;-84
2021/05/11 10:52:07;;;;;;;;;;;23.20;53.00;;;;;;4738441;30;20105;-84
2021/05/11 10:54:36;;;;;;;;;;;23.20;52.90;;;;;;4751553;30;19932;-83
2021/05/11 10:57:23;;;;;;;;;;;23.20;52.90;;;;;;4760054;30;19952;-83
2021/05/11 10:59:58;;;;;;;;;;;23.10;52.80;;;;;;4745827;30;19934;-82
2021/05/11 11:02:38;;;;;;;;;;;23.10;52.80;;;;;;4761022;30;19930;-88
2021/05/11 11:05:06;;;;;;;;;;;23.10;53.50;;;;;;4742275;30;20021;-91
2021/05/11 11:07:37;;;;;;;;;;;23.10;52.70;;;;;;4762244;30;19937;-89
2021/05/11 11:10:06;;;;;;;;;;;23.10;52.10;;;;;;4744945;30;19930;-90
2021/05/11 11:12:40;;;;;;;;;;;23.20;51.90;;;;;;4738117;30;21284;-90
2021/05/11 11:15:12;;;;;;;;;;;23.20;51.70;;;;;;4749085;30;21419;-85
2021/05/11 11:17:44;;;;;;;;;;;23.10;51.90;;;;;;4758855;30;21753;-83
2021/05/11 11:20:13;;;;;;;;;;;23.10;51.30;;;;;;4749093;30;19930;-86
2021/05/11 11:25:26;;;;;;;;;;;23.10;52.00;;;;;;4762381;30;20226;-85
2021/05/11 11:27:52;;;;;;;;;;;23.10;51.90;;;;;;4745285;30;19929;-85
2021/05/11 11:30:19;;;;;;;;;;;23.00;51.80;;;;;;4754301;30;20396;-84
2021/05/11 11:32:47;;;;;;;;;;;23.00;51.70;;;;;;4750654;30;19999;-85
2021/05/11 11:35:13;;;;;;;;;;;23.00;51.60;;;;;;4752893;30;19934;-84
2021/05/11 11:37:58;;;;;;;;;;;23.00;51.50;;;;;;4719516;30;19944;-86
2021/05/11 11:44:20;;;;;;;;;;;23.00;51.90;;;;;;4524857;30;20039;-86
2021/05/11 11:47:06;;;;;;;;;;;23.10;52.60;;;;;;4667254;30;20030;-85
2021/05/11 11:49:37;;;;;;;;;;;23.10;52.50;;;;;;4735969;30;19937;-85
2021/05/11 11:52:28;;;;;;;;;;;23.10;52.70;;;;;;4755807;30;19930;-86
2021/05/11 12:00:13;;;;;;;;;;;23.20;52.70;;;;;;4749206;30;20295;-87
2021/05/11 12:02:54;;;;;;;;;;;23.20;53.30;;;;;;4742436;30;20024;-93
2021/05/11 12:05:35;;;;;;;;;;;23.30;53.30;;;;;;4745425;30;19937;-86
2021/05/11 12:08:24;;;;;;;;;;;23.40;52.50;;;;;;4758477;30;20036;-87
2021/05/11 12:10:54;;;;;;;;;;;23.50;52.50;;;;;;4711488;30;20135;-88
2021/05/11 12:13:34;;;;;;;;;;;23.60;52.50;;;;;;4739497;30;20025;-90
2021/05/11 12:16:11;;;;;;;;;;;23.70;52.10;;;;;;4761359;30;19930;-95
2021/05/11 12:18:43;;;;;;;;;;;23.70;51.90;;;;;;4744007;30;20347;-90
2021/05/11 12:21:12;;;;;;;;;;;23.70;52.00;;;;;;4733885;30;20081;-93
2021/05/11 12:23:40;;;;;;;;;;;23.80;51.80;;;;;;4758852;30;19930;-87
2021/05/11 12:26:07;;;;;;;;;;;23.80;51.90;;;;;;4756468;30;20425;-90
2021/05/11 12:28:38;;;;;;;;;;;23.90;52.00;;;;;;4751249;30;20960;-90
2021/05/11 12:31:11;;;;;;;;;;;23.90;52.10;;;;;;4740118;30;20066;-90
2021/05/11 12:33:40;;;;;;;;;;;24.00;52.10;;;;;;4745166;30;20028;-86
2021/05/11 12:36:13;;;;;;;;;;;24.00;51.60;;;;;;4747228;30;20776;-92
2021/05/11 12:38:40;;;;;;;;;;;24.10;51.40;;;;;;4755637;30;20319;-87
2021/05/11 12:41:14;;;;;;;;;;;24.10;51.20;;;;;;4742279;30;20498;-86
2021/05/11 12:43:43;;;;;;;;;;;24.10;51.20;;;;;;4755984;30;20319;-87
2021/05/11 12:46:13;;;;;;;;;;;24.20;50.90;;;;;;4758995;30;19989;-90
2021/05/11 12:49:03;;;;;;;;;;;24.20;50.90;;;;;;4755029;30;19967;-90
2021/05/11 12:51:40;;;;;;;;;;;24.30;50.70;;;;;;4727562;30;19937;-90
2021/05/11 12:54:26;;;;;;;;;;;24.30;50.50;;;;;;4759061;30;19938;-91
2021/05/11 13:05:13;;;;;;;;;;;24.40;50.40;;;;;;4746699;30;20044;-87
2021/05/11 13:16:23;;;;;;;;;;;24.40;49.70;;;;;;4885816;24;20368;-87
2021/05/11 13:27:26;;;;;;;;;;;24.60;49.60;;;;;;4737663;30;19945;-84
2021/05/11 13:35:38;;;;;;;;;;;24.60;49.60;;;;;;4744781;30;20358;-82
2021/05/11 13:38:06;;;;;;;;;;;24.60;50.00;;;;;;4698164;30;20277;-83
2021/05/11 13:40:33;;;;;;;;;;;24.60;49.50;;;;;;4730256;30;19938;-84
2021/05/11 13:43:01;;;;;;;;;;;24.60;49.50;;;;;;4736912;30;19938;-84
2021/05/11 13:45:29;;;;;;;;;;;24.70;49.90;;;;;;4721908;30;20382;-84
2021/05/11 13:47:59;;;;;;;;;;;24.70;50.20;;;;;;4739771;30;19933;-82
2021/05/11 13:50:41;;;;;;;;;;;24.70;50.00;;;;;;4732681;30;19938;-86
2021/05/11 13:53:12;;;;;;;;;;;24.80;50.20;;;;;;4687436;30;20057;-83
2021/05/11 13:56:03;;;;;;;;;;;24.80;50.00;;;;;;4695082;30;20086;-86
2021/05/11 14:04:25;;;;;;;;;;;24.80;49.70;;;;;;4680373;30;19934;-87
2021/05/11 14:06:52;;;;;;;;;;;24.90;49.50;;;;;;4704182;30;20404;-86
2021/05/11 14:09:27;;;;;;;;;;;24.90;49.50;;;;;;4673202;30;20310;-84
2021/05/11 14:16:15;;;;;;;;;;;24.90;49.30;;;;;;4664079;30;19991;-88
2021/05/11 14:18:42;;;;;;;;;;;24.90;49.10;;;;;;4666045;30;19954;-89
2021/05/11 14:21:13;;;;;;;;;;;24.90;48.90;;;;;;4665674;30;20044;-87
2021/05/11 14:23:41;;;;;;;;;;;24.90;49.60;;;;;;4663814;30;20042;-85
2021/05/11 14:26:09;;;;;;;;;;;24.80;48.80;;;;;;4626446;30;19940;-85
2021/05/11 14:28:36;;;;;;;;;;;24.80;48.80;;;;;;4651395;30;20459;-88
2021/05/11 14:31:04;;;;;;;;;;;24.80;48.80;;;;;;4656529;30;20011;-85
2021/05/11 14:33:31;;;;;;;;;;;24.80;48.80;;;;;;4647325;30;20051;-92
2021/05/11 14:36:26;;;;;;;;;;;24.80;48.70;;;;;;4648593;30;19947;-85
2021/05/11 14:39:41;;;;;;;;;;;24.80;48.70;;;;;;4638378;30;19931;-85
2021/05/11 14:53:05;;;;;;;;;;;24.80;48.60;;;;;;4709929;30;19934;-91
2021/05/11 14:58:43;;;;;;;;;;;24.80;48.40;;;;;;4695635;30;19939;-86
2021/05/11 15:01:14;;;;;;;;;;;24.80;48.00;;;;;;4664833;30;20042;-85
2021/05/11 15:03:43;;;;;;;;;;;24.80;48.30;;;;;;4657690;30;19974;-85
2021/05/11 15:06:17;;;;;;;;;;;24.80;48.40;;;;;;4683975;30;19934;-82
2021/05/11 15:08:59;;;;;;;;;;;24.80;48.00;;;;;;4675423;30;20037;-84
2021/05/11 15:12:11;;;;;;;;;;;24.80;48.30;;;;;;4674436;30;20391;-91
2021/05/11 15:14:39;;;;;;;;;;;24.80;48.50;;;;;;4682494;30;19935;-87
2021/05/11 15:19:48;;;;;;;;;;;24.90;48.30;;;;;;4667724;30;20114;-84
2021/05/11 15:22:16;;;;;;;;;;;24.90;48.50;;;;;;4693619;30;20072;-82
2021/05/11 15:24:43;;;;;;;;;;;24.90;48.40;;;;;;4708070;30;19935;-82
2021/05/11 15:27:10;;;;;;;;;;;24.80;48.50;;;;;;4692530;30;19931;-82
2021/05/11 15:29:43;;;;;;;;;;;24.80;49.00;;;;;;4709446;30;20293;-82
2021/05/11 15:32:29;;;;;;;;;;;24.70;49.00;;;;;;4717835;30;19939;-82
2021/05/11 15:35:06;;;;;;;;;;;24.80;48.90;;;;;;4677829;30;19939;-82
2021/05/11 15:37:34;;;;;;;;;;;24.70;48.90;;;;;;4703122;30;19939;-84
2021/05/11 15:40:03;;;;;;;;;;;24.80;49.00;;;;;;4678691;30;19946;-82
2021/05/11 15:45:49;;;;;;;;;;;24.70;49.00;;;;;;4666012;30;19937;-81
2021/05/11 15:48:32;;;;;;;;;;;24.60;49.20;;;;;;4614484;30;19931;-85
2021/05/11 15:50:59;;;;;;;;;;;24.70;49.30;;;;;;4688266;30;19930;-84
2021/05/11 15:53:26;;;;;;;;;;;24.60;49.30;;;;;;4695121;30;20121;-83
2021/05/11 15:55:52;;;;;;;;;;;24.60;49.70;;;;;;4710034;30;20075;-85
2021/05/11 15:58:19;;;;;;;;;;;24.60;49.80;;;;;;4697027;30;19938;-91
2021/05/11 16:00:50;;;;;;;;;;;24.50;49.90;;;;;;4698108;30;19931;-84
2021/05/11 16:03:23;;;;;;;;;;;24.50;49.60;;;;;;4707194;30;21399;-85
2021/05/11 16:05:50;;;;;;;;;;;24.40;49.70;;;;;;4707655;30;19947;-87
2021/05/11 16:08:26;;;;;;;;;;;24.30;50.00;;;;;;4697838;30;20449;-86
2021/05/11 16:10:52;;;;;;;;;;;24.10;50.30;;;;;;4708825;30;20024;-87
2021/05/11 16:13:23;;;;;;;;;;;24.10;50.80;;;;;;4695742;30;19950;-85
2021/05/11 16:15:50;;;;;;;;;;;24.00;51.10;;;;;;4697188;30;19963;-89
2021/05/11 16:18:17;;;;;;;;;;;23.90;51.30;;;;;;4711366;30;19930;-85
2021/05/11 16:20:44;;;;;;;;;;;23.80;51.50;;;;;;4710535;30;19931;-88
2021/05/11 16:23:11;;;;;;;;;;;23.70;51.70;;;;;;4708031;30;20119;-87
2021/05/11 16:25:38;;;;;;;;;;;23.70;51.90;;;;;;4704987;30;19935;-87
2021/05/11 16:28:05;;;;;;;;;;;23.60;52.00;;;;;;4705238;30;19931;-85
2021/05/11 16:30:32;;;;;;;;;;;23.60;52.20;;;;;;4688170;30;19931;-86
2021/05/11 16:32:59;;;;;;;;;;;23.50;52.30;;;;;;4708904;30;19931;-88
2021/05/11 16:35:26;;;;;;;;;;;23.40;52.40;;;;;;4706285;30;20382;-85
2021/05/11 16:37:52;;;;;;;;;;;23.40;52.50;;;;;;4709157;30;19939;-86
2021/05/11 16:40:31;;;;;;;;;;;23.40;52.80;;;;;;4697362;30;19931;-92
2021/05/11 16:42:57;;;;;;;;;;;23.30;52.90;;;;;;4684612;30;20296;-91
2021/05/11 16:45:25;;;;;;;;;;;23.30;53.40;;;;;;4674122;30;19938;-88
2021/05/11 16:47:55;;;;;;;;;;;23.30;53.50;;;;;;4677448;30;19939;-89
2021/05/11 16:50:49;;;;;;;;;;;23.30;53.80;;;;;;4688661;30;20483;-90
2021/05/11 16:53:16;;;;;;;;;;;23.30;53.10;;;;;;4673416;30;19954;-87
2021/05/11 16:55:43;;;;;;;;;;;23.30;53.60;;;;;;4691174;30;19935;-85
2021/05/11 16:58:12;;;;;;;;;;;23.30;53.50;;;;;;4688338;30;19932;-84
2021/05/11 17:01:43;;;;;;;;;;;;;;;;;;;;;
2021/05/11 17:05:04;;;;;;;;;;;23.30;53.70;;;;;;4585682;30;19940;-90
2021/05/11 17:07:34;;;;;;;;;;;23.30;53.60;;;;;;4600252;30;19933;-90
2021/05/11 17:10:01;;;;;;;;;;;23.30;53.60;;;;;;4632144;30;19947;-88
2021/05/11 17:12:29;;;;;;;;;;;23.30;53.60;;;;;;4634440;30;19951;-89
2021/05/11 17:15:05;;;;;;;;;;;23.30;53.50;;;;;;4644271;30;19936;-85
2021/05/11 17:17:36;;;;;;;;;;;23.30;53.40;;;;;;4626593;30;19936;-84
2021/05/11 17:20:09;;;;;;;;;;;23.30;53.50;;;;;;4613062;30;19992;-91
2021/05/11 17:22:37;;;;;;;;;;;23.30;53.50;;;;;;4626233;30;19936;-84
2021/05/11 17:25:13;;;;;;;;;;;23.30;53.70;;;;;;4649204;30;20616;-87
2021/05/11 17:27:50;;;;;;;;;;;23.30;53.50;;;;;;4630918;30;20453;-93
2021/05/11 17:30:19;;;;;;;;;;;23.30;53.60;;;;;;4653901;30;20381;-93
2021/05/11 17:32:49;;;;;;;;;;;23.30;53.60;;;;;;4666581;30;19931;-86
2021/05/11 17:35:30;;;;;;;;;;;23.30;53.60;;;;;;4678949;30;20025;-87
2021/05/11 17:38:00;;;;;;;;;;;23.30;53.70;;;;;;4686154;30;19937;-89
2021/05/11 17:40:27;;;;;;;;;;;23.30;53.60;;;;;;4672956;30;19939;-82
2021/05/11 17:42:56;;;;;;;;;;;23.30;53.50;;;;;;4686402;30;19962;-84
2021/05/11 17:45:24;;;;;;;;;;;23.30;53.50;;;;;;4692364;30;19938;-86
2021/05/11 17:47:51;;;;;;;;;;;23.20;53.20;;;;;;4703870;30;19942;-82
2021/05/11 17:50:19;;;;;;;;;;;23.30;53.40;;;;;;4705941;30;19985;-87
2021/05/11 17:52:47;;;;;;;;;;;23.30;53.40;;;;;;4680025;30;19973;-88
2021/05/11 17:55:14;;;;;;;;;;;23.30;53.30;;;;;;4692060;30;19931;-91
2021/05/11 17:57:45;;;;;;;;;;;23.30;53.60;;;;;;4694175;30;20148;-90
2021/05/11 18:00:13;;;;;;;;;;;23.30;53.50;;;;;;4688972;30;20404;-90
2021/05/11 18:02:40;;;;;;;;;;;23.30;53.30;;;;;;4694430;30;19938;-86
2021/05/11 18:05:11;;;;;;;;;;;23.30;53.00;;;;;;4694677;30;19947;-90
2021/05/11 18:07:38;;;;;;;;;;;23.20;53.00;;;;;;4709683;30;20583;-89
2021/05/11 18:10:06;;;;;;;;;;;23.20;53.10;;;;;;4708143;30;20268;-91
2021/05/11 18:15:03;;;;;;;;;;;23.10;53.60;;;;;;4721805;30;20557;-90
2021/05/11 18:17:29;;;;;;;;;;;23.10;53.10;;;;;;4704265;30;20485;-90
2021/05/11 18:19:56;;;;;;;;;;;23.00;53.10;;;;;;4708120;30;19934;-92
2021/05/11 18:22:23;;;;;;;;;;;23.00;53.10;;;;;;4699538;30;19937;-93
2021/05/11 18:25:09;;;;;;;;;;;23.00;53.10;;;;;;4701500;30;20090;-89
2021/05/11 18:27:38;;;;;;;;;;;22.90;53.00;;;;;;4716654;30;20439;-90
2021/05/11 18:30:05;;;;;;;;;;;22.90;53.00;;;;;;4711395;30;19942;-89
2021/05/11 18:32:32;;;;;;;;;;;22.80;53.10;;;;;;4704942;30;19946;-90
2021/05/11 18:35:01;;;;;;;;;;;22.80;53.10;;;;;;4705686;30;20248;-90
2021/05/11 18:37:35;;;;;;;;;;;22.90;53.20;;;;;;4715543;30;20404;-90
2021/05/11 18:40:02;;;;;;;;;;;22.80;53.10;;;;;;4698633;30;19945;-89
2021/05/11 18:42:29;;;;;;;;;;;22.80;53.20;;;;;;4732104;30;19961;-89
2021/05/11 18:44:56;;;;;;;;;;;22.70;53.20;;;;;;4727631;30;19941;-90
2021/05/11 18:47:23;;;;;;;;;;;22.70;53.40;;;;;;4706806;30;20208;-91
2021/05/11 18:49:49;;;;;;;;;;;22.70;53.40;;;;;;4698070;30;19950;-89
2021/05/11 18:52:16;;;;;;;;;;;22.60;53.40;;;;;;4708023;30;20444;-89
2021/05/11 18:54:47;;;;;;;;;;;22.60;53.40;;;;;;4708256;30;19963;-88
2021/05/11 18:57:14;;;;;;;;;;;22.60;53.60;;;;;;4694690;30;20349;-95
2021/05/11 18:59:41;;;;;;;;;;;22.60;53.70;;;;;;4684500;30;19942;-92
2021/05/11 19:02:10;;;;;;;;;;;22.50;53.70;;;;;;4683515;30;22015;-90
2021/05/11 19:04:37;;;;;;;;;;;22.60;53.90;;;;;;4689618;30;21640;-90
2021/05/11 19:07:04;;;;;;;;;;;22.50;53.80;;;;;;4692364;30;20026;-89
2021/05/11 19:09:31;;;;;;;;;;;22.60;53.80;;;;;;4703303;30;20171;-90
2021/05/11 19:11:58;;;;;;;;;;;22.60;53.90;;;;;;4682582;30;19935;-90
2021/05/11 19:14:24;;;;;;;;;;;22.70;53.90;;;;;;4693206;30;19934;-87
2021/05/11 19:16:51;;;;;;;;;;;22.60;53.80;;;;;;4704413;30;19934;-90
2021/05/11 19:19:19;;;;;;;;;;;22.60;53.70;;;;;;4694142;30;19945;-92
2021/05/11 19:21:46;;;;;;;;;;;22.70;53.60;;;;;;4717549;30;19934;-89